Time;durP1;ratioP1;P1;durP2;ratioP2;P2;SDS_P1;SDS_P2;PMS_P1;PMS_P2;Temp;Humidity;BMP_temperature;BMP_pressure;BME280_temperature;BME280_humidity;BME280_pressure;Samples;Min_cycle;Max_cycle;Signal;HPM_P1;HPM_P2
2024/04/07 00:02:17;;;;;;;5.18;1.55;;;11.20;99.90;;;;;;5024327;28;20139;-85
2024/04/07 00:04:43;;;;;;;0.90;0.80;;;11.30;91.70;;;;;;5022512;28;20435;-83
2024/04/07 00:07:09;;;;;;;8.30;1.25;;;11.30;98.40;;;;;;5025889;28;20434;-83
2024/04/07 00:09:37;;;;;;;1.58;1.00;;;11.10;99.90;;;;;;5021792;28;20026;-84
2024/04/07 00:12:04;;;;;;;2.38;0.93;;;10.60;99.90;;;;;;5015358;28;20021;-82
2024/04/07 00:14:30;;;;;;;4.60;1.05;;;10.30;99.90;;;;;;5022692;28;20017;-83
2024/04/07 00:16:56;;;;;;;3.75;1.42;;;10.40;99.90;;;;;;5023261;28;20029;-79
2024/04/07 00:19:21;;;;;;;3.75;1.10;;;10.40;99.90;;;;;;5026812;28;20029;-81
2024/04/07 00:21:47;;;;;;;4.07;1.48;;;10.50;99.90;;;;;;5031493;28;20113;-81
2024/04/07 00:24:13;;;;;;;10.63;1.60;;;10.60;99.90;;;;;;5031332;28;20921;-82
2024/04/07 00:26:38;;;;;;;9.15;1.67;;;10.60;99.90;;;;;;5031138;28;20026;-80
2024/04/07 00:29:04;;;;;;;2.63;1.08;;;10.60;99.90;;;;;;5027496;28;20028;-81
2024/04/07 00:31:30;;;;;;;1.67;1.02;;;10.40;99.90;;;;;;5029054;28;20067;-81
2024/04/07 00:33:55;;;;;;;3.65;1.00;;;10.50;99.90;;;;;;5029170;28;20412;-80
2024/04/07 00:36:21;;;;;;;4.68;1.33;;;10.50;99.90;;;;;;5029160;28;20112;-81
2024/04/07 00:38:47;;;;;;;4.32;1.42;;;10.50;99.90;;;;;;5029429;28;20025;-81
2024/04/07 00:41:13;;;;;;;4.18;1.10;;;10.50;99.90;;;;;;5028865;28;20018;-81
2024/04/07 00:43:40;;;;;;;3.47;1.00;;;10.40;99.90;;;;;;5027948;28;20104;-81
2024/04/07 00:46:06;;;;;;;5.28;1.50;;;10.30;99.90;;;;;;5028751;28;20017;-83
2024/04/07 00:48:35;;;;;;;4.28;1.13;;;10.10;99.90;;;;;;5028469;28;20529;-83
2024/04/07 00:51:01;;;;;;;2.55;1.10;;;9.90;99.90;;;;;;5029872;28;20017;-83
2024/04/07 00:53:27;;;;;;;1.75;0.95;;;9.90;99.90;;;;;;5031247;28;20025;-83
2024/04/07 00:55:53;;;;;;;8.35;1.98;;;9.80;99.90;;;;;;5031020;28;20109;-82
2024/04/07 00:58:19;;;;;;;3.25;1.75;;;9.80;99.90;;;;;;5029049;28;20136;-82
2024/04/07 01:00:45;;;;;;;3.38;1.20;;;9.90;99.90;;;;;;5030075;28;20537;-82
2024/04/07 01:03:13;;;;;;;7.40;1.30;;;9.80;99.90;;;;;;5030084;28;20422;-83
2024/04/07 01:05:42;;;;;;;5.28;1.23;;;9.90;99.90;;;;;;5030151;28;20425;-81
2024/04/07 01:08:09;;;;;;;4.68;1.40;;;9.90;99.90;;;;;;5023843;28;21659;-81
2024/04/07 01:10:35;;;;;;;3.95;0.98;;;9.90;99.90;;;;;;5027010;28;20040;-82
2024/04/07 01:13:02;;;;;;;3.00;1.15;;;10.30;99.90;;;;;;5022749;28;20060;-81
2024/04/07 01:15:28;;;;;;;6.18;1.33;;;10.80;99.90;;;;;;5027381;28;20045;-82
2024/04/07 01:17:54;;;;;;;4.05;1.13;;;11.10;99.90;;;;;;5022158;28;20022;-84
2024/04/07 01:20:20;;;;;;;7.78;1.20;;;11.20;71.20;;;;;;5029660;28;20487;-82
2024/04/07 01:22:46;;;;;;;2.15;1.45;;;10.90;64.80;;;;;;5030474;28;20031;-82
2024/04/07 01:25:18;;;;;;;9.35;1.02;;;10.90;80.90;;;;;;5013123;28;20401;-81
2024/04/07 01:28:01;;;;;;;5.18;0.90;;;10.90;69.90;;;;;;5010326;28;20018;-81
2024/04/07 01:30:28;;;;;;;5.82;1.30;;;11.10;38.70;;;;;;5010561;28;20431;-80
2024/04/07 01:32:54;;;;;;;2.80;1.10;;;11.20;13.40;;;;;;5009055;28;20025;-81
2024/04/07 01:35:20;;;;;;;13.85;1.30;;;11.60;1.00;;;;;;5013694;28;20061;-82
2024/04/07 01:37:45;;;;;;;10.13;1.00;;;12.50;99.90;;;;;;5011262;28;20499;-84
2024/04/07 01:40:12;;;;;;;7.25;1.50;;;14.80;99.90;;;;;;5011082;28;20403;-83
2024/04/07 01:42:41;;;;;;;8.43;2.58;;;15.70;99.90;;;;;;5011022;28;20491;-83
2024/04/07 01:45:08;;;;;;;8.80;2.33;;;15.40;99.90;;;;;;5010334;28;20022;-83
2024/04/07 01:47:35;;;;;;;6.22;1.45;;;15.30;99.90;;;;;;5010197;28;20063;-82
2024/04/07 01:50:02;;;;;;;5.47;1.13;;;15.60;99.90;;;;;;5011278;28;20538;-83
2024/04/07 01:52:28;;;;;;;8.15;1.55;;;15.90;99.90;;;;;;5011716;28;20022;-82
2024/04/07 01:54:54;;;;;;;3.45;0.82;;;16.20;99.90;;;;;;5011560;28;20581;-82
2024/04/07 01:57:19;;;;;;;2.28;0.90;;;16.10;99.90;;;;;;5023476;28;20049;-82
2024/04/07 01:59:45;;;;;;;5.55;0.85;;;16.00;99.90;;;;;;5033699;28;20029;-82
2024/04/07 02:02:11;;;;;;;4.35;0.90;;;15.80;99.90;;;;;;5035481;28;20049;-83
2024/04/07 02:04:38;;;;;;;6.88;0.90;;;15.50;99.90;;;;;;5036050;28;20034;-82
2024/04/07 02:07:03;;;;;;;4.05;0.88;;;15.90;99.90;;;;;;5021999;28;20017;-83
2024/04/07 02:09:29;;;;;;;6.35;0.70;;;16.10;99.90;;;;;;5010427;28;20025;-82
2024/04/07 02:11:55;;;;;;;3.92;1.50;;;15.80;99.90;;;;;;5010568;28;20025;-82
2024/04/07 02:14:21;;;;;;;3.08;0.90;;;15.70;99.90;;;;;;5020119;28;20036;-83
2024/04/07 02:16:47;;;;;;;9.48;1.30;;;15.80;99.90;;;;;;5011429;28;20025;-82
2024/04/07 02:19:13;;;;;;;8.98;2.15;;;16.10;99.90;;;;;;5019734;28;20095;-81
2024/04/07 02:21:38;;;;;;;7.20;1.27;;;15.90;99.90;;;;;;5029897;28;20018;-81
2024/04/07 02:24:05;;;;;;;6.57;1.00;;;15.70;99.90;;;;;;5034955;28;20028;-82
2024/04/07 02:26:31;;;;;;;11.40;2.70;;;15.80;99.90;;;;;;5035219;28;20371;-83
2024/04/07 02:28:57;;;;;;;6.20;1.13;;;16.10;99.90;;;;;;5035176;28;20052;-82
2024/04/07 02:31:23;;;;;;;5.55;0.95;;;16.30;99.90;;;;;;5034484;28;20049;-83
2024/04/07 02:33:49;;;;;;;5.25;1.05;;;16.20;99.90;;;;;;5034599;28;20026;-84
2024/04/07 02:36:16;;;;;;;5.03;1.23;;;16.50;99.90;;;;;;5021577;28;20065;-83
2024/04/07 02:38:42;;;;;;;5.65;0.90;;;16.50;99.90;;;;;;5034750;28;20111;-81
2024/04/07 02:41:08;;;;;;;3.50;1.50;;;16.40;99.90;;;;;;5021606;28;20072;-82
2024/04/07 02:43:34;;;;;;;6.13;1.45;;;16.50;99.90;;;;;;5040103;28;20056;-83
2024/04/07 02:48:45;;;;;;;2.78;1.10;;;16.40;99.90;;;;;;5029252;28;20056;-84
2024/04/07 02:51:11;;;;;;;6.65;0.93;;;16.50;99.90;;;;;;5055394;28;20030;-83
2024/04/07 02:53:37;;;;;;;8.25;1.15;;;16.40;99.90;;;;;;5055945;28;20025;-82
2024/04/07 02:56:03;;;;;;;4.43;0.70;;;15.90;99.90;;;;;;5045138;28;20515;-84
2024/04/07 02:58:28;;;;;;;4.65;0.98;;;15.60;99.90;;;;;;5039649;28;20017;-84
2024/04/07 03:01:05;;;;;;;6.05;1.08;;;15.70;99.90;;;;;;5037567;28;20096;-85
2024/04/07 03:03:32;;;;;;;13.50;0.90;;;15.60;99.90;;;;;;5030146;28;20032;-84
2024/04/07 03:05:58;;;;;;;9.80;1.02;;;15.60;99.90;;;;;;5029998;28;20037;-86
2024/04/07 03:08:24;;;;;;;12.20;1.08;;;15.70;99.90;;;;;;5030705;28;20100;-85
2024/04/07 03:10:59;;;;;;;6.25;1.13;;;15.50;99.90;;;;;;5029067;28;20032;-85
2024/04/07 03:13:25;;;;;;;;;;;15.50;99.90;;;;;;5030941;28;20025;-83
2024/04/07 03:15:51;;;;;;;9.68;1.25;;;15.50;99.90;;;;;;5028327;28;19920;-84
2024/04/07 03:18:17;;;;;;;3.90;1.02;;;15.50;99.90;;;;;;5029488;28;20108;-84
2024/04/07 03:20:43;;;;;;;3.70;1.05;;;15.40;99.90;;;;;;5028142;28;20072;-85
2024/04/07 03:23:08;;;;;;;3.22;1.50;;;15.20;99.90;;;;;;5023832;28;20029;-86
2024/04/07 03:25:34;;;;;;;4.05;1.30;;;15.20;99.90;;;;;;5027327;28;20041;-84
2024/04/07 03:28:00;;;;;;;11.52;1.35;;;15.10;99.90;;;;;;5016750;28;20407;-82
2024/04/07 03:30:26;;;;;;;7.22;1.40;;;15.50;99.90;;;;;;5030955;28;20112;-82
2024/04/07 03:32:51;;;;;;;10.80;1.30;;;15.50;99.90;;;;;;5031210;28;20038;-81
2024/04/07 03:35:17;;;;;;;2.65;1.25;;;15.60;99.90;;;;;;5032049;28;20072;-81
2024/04/07 03:37:43;;;;;;;6.63;1.48;;;15.50;99.90;;;;;;5032490;28;20037;-82
2024/04/07 03:40:09;;;;;;;6.30;1.17;;;15.40;99.90;;;;;;5031021;28;20025;-82
2024/04/07 03:42:34;;;;;;;5.68;1.90;;;15.20;99.90;;;;;;5031935;28;20075;-81
2024/04/07 03:45:00;;;;;;;5.20;1.30;;;15.00;99.90;;;;;;5032159;28;20525;-82
2024/04/07 03:47:25;;;;;;;6.22;1.90;;;14.90;99.90;;;;;;5019100;28;20029;-82
2024/04/07 03:49:51;;;;;;;5.63;1.50;;;15.00;99.90;;;;;;5030190;28;20029;-82
2024/04/07 03:52:18;;;;;;;5.65;1.38;;;15.10;99.90;;;;;;5031498;28;20022;-82
2024/04/07 03:54:44;;;;;;;7.50;1.55;;;15.00;99.90;;;;;;5031142;28;20047;-82
2024/04/07 03:57:09;;;;;;;11.60;1.58;;;15.10;99.90;;;;;;5031113;28;20529;-82
2024/04/07 03:59:35;;;;;;;8.48;1.42;;;15.10;99.90;;;;;;5031243;28;20509;-82
2024/04/07 04:02:01;;;;;;;4.40;1.35;;;15.00;99.90;;;;;;5030900;28;20057;-82
2024/04/07 04:04:26;;;;;;;8.27;1.30;;;14.90;99.90;;;;;;5029385;28;20026;-82
2024/04/07 04:06:52;;;;;;;4.20;1.20;;;15.00;99.90;;;;;;5031395;28;20029;-82
2024/04/07 04:09:18;;;;;;;4.00;1.33;;;15.20;99.90;;;;;;5031537;28;20075;-81
2024/04/07 04:11:43;;;;;;;5.93;1.30;;;15.30;99.90;;;;;;5032028;28;20025;-82
2024/04/07 04:14:09;;;;;;;4.88;0.95;;;15.30;99.90;;;;;;5030243;28;20029;-83
2024/04/07 04:16:35;;;;;;;5.90;1.40;;;15.20;99.90;;;;;;5031457;28;20121;-83
2024/04/07 04:19:00;;;;;;;9.07;1.67;;;15.10;99.90;;;;;;5031745;28;20487;-83
2024/04/07 04:21:26;;;;;;;6.10;1.10;;;15.10;99.90;;;;;;5031561;28;20095;-83
2024/04/07 04:23:51;;;;;;;7.75;2.03;;;15.10;99.90;;;;;;5032423;28;20021;-84
2024/04/07 04:26:17;;;;;;;5.32;1.10;;;15.10;99.90;;;;;;5032171;28;20072;-83
2024/04/07 04:28:43;;;;;;;6.85;1.45;;;15.00;99.90;;;;;;5032220;28;20026;-85
2024/04/07 04:31:10;;;;;;;6.35;1.45;;;14.80;99.90;;;;;;5031241;28;20028;-84
2024/04/07 04:33:37;;;;;;;6.22;1.33;;;14.60;99.90;;;;;;5031355;28;20025;-83
2024/04/07 04:36:11;;;;;;;3.08;1.15;;;14.50;99.90;;;;;;5030164;28;20069;-83
2024/04/07 04:38:36;;;;;;;8.60;1.20;;;14.30;99.90;;;;;;5033375;28;20060;-82
2024/04/07 04:41:02;;;;;;;10.02;1.27;;;14.10;99.90;;;;;;5030452;28;20053;-84
2024/04/07 04:43:28;;;;;;;10.80;1.27;;;14.00;99.90;;;;;;5029319;28;20076;-84
2024/04/07 04:46:13;;;;;;;4.55;1.42;;;13.90;99.90;;;;;;5031074;28;20084;-84
2024/04/07 04:48:38;;;;;;;12.67;1.43;;;13.80;99.90;;;;;;5022395;28;20533;-84
2024/04/07 04:51:04;;;;;;;3.60;1.23;;;13.60;1.00;;;;;;5023227;28;20272;-85
2024/04/07 04:53:30;;;;;;;8.25;1.20;;;13.50;1.00;;;;;;5021739;28;20064;-85
2024/04/07 04:56:03;;;;;;;7.13;1.50;;;13.50;1.00;;;;;;5022693;28;20071;-84
2024/04/07 04:58:33;;;;;;;9.05;1.60;;;13.60;1.00;;;;;;5015633;28;20431;-85
2024/04/07 05:01:12;;;;;;;6.40;1.67;;;13.70;1.00;;;;;;5021307;28;20024;-82
2024/04/07 05:03:38;;;;;;;4.85;1.58;;;13.60;1.00;;;;;;5028600;28;20025;-83
2024/04/07 05:06:13;;;;;;;9.50;1.60;;;13.70;1.00;;;;;;5017839;28;20523;-84
2024/04/07 05:08:39;;;;;;;;;;;13.70;1.00;;;;;;5012210;28;20030;-82
2024/04/07 05:11:06;;;;;;;10.77;1.60;;;13.70;1.00;;;;;;5015905;28;20264;-80
2024/04/07 05:13:32;;;;;;;9.05;1.73;;;13.70;1.00;;;;;;5010634;28;20028;-80
2024/04/07 05:15:59;;;;;;;10.00;1.60;;;13.70;1.00;;;;;;5010332;28;20127;-80
2024/04/07 05:18:25;;;;;;;5.68;1.40;;;13.70;1.00;;;;;;5010007;28;20816;-80
2024/04/07 05:20:52;;;;;;;9.27;1.45;;;13.80;1.00;;;;;;5010368;28;20022;-80
2024/04/07 05:23:17;;;;;;;6.43;2.33;;;13.80;1.00;;;;;;5015866;28;20034;-79
2024/04/07 05:25:43;;;;;;;6.82;1.65;;;13.70;1.00;;;;;;5009773;28;20097;-80
2024/04/07 05:28:09;;;;;;;9.93;2.25;;;13.80;1.00;;;;;;5016264;28;20108;-80
2024/04/07 05:30:38;;;;;;;6.35;1.60;;;13.70;1.00;;;;;;5024224;28;20507;-80
2024/04/07 05:33:05;;;;;;;3.00;1.27;;;13.80;1.00;;;;;;5022883;28;20041;-80
2024/04/07 05:35:34;;;;;;;8.50;1.25;;;13.90;99.90;;;;;;5033222;28;20040;-80
2024/04/07 05:38:00;;;;;;;3.63;1.00;;;13.90;99.90;;;;;;5021537;28;20037;-81
2024/04/07 05:40:26;;;;;;;4.65;1.30;;;13.90;99.90;;;;;;5025576;28;20029;-81
2024/04/07 05:42:52;;;;;;;5.07;1.02;;;13.80;99.90;;;;;;5011846;28;20038;-81
2024/04/07 05:45:18;;;;;;;4.55;1.33;;;13.80;1.00;;;;;;5025703;28;20037;-80
2024/04/07 05:47:52;;;;;;;4.10;1.13;;;13.70;1.00;;;;;;5023484;28;20021;-79
2024/04/07 05:50:18;;;;;;;2.33;0.90;;;14.00;99.90;;;;;;5016192;28;20025;-78
2024/04/07 05:52:44;;;;;;;5.38;1.35;;;14.10;99.90;;;;;;5020665;28;20022;-78
2024/04/07 05:55:09;;;;;;;7.80;1.38;;;14.20;99.90;;;;;;5004140;28;20073;-80
2024/04/07 05:57:39;;;;;;;12.73;1.50;;;14.40;99.90;;;;;;5016857;28;20030;-80
2024/04/07 06:00:08;;;;;;;8.10;1.25;;;14.40;99.90;;;;;;5007407;28;20403;-80
2024/04/07 06:02:34;;;;;;;7.03;2.55;;;14.50;99.90;;;;;;5021425;28;20029;-80
2024/04/07 06:05:00;;;;;;;8.55;2.60;;;14.50;99.90;;;;;;5012255;28;20253;-81
2024/04/07 06:07:26;;;;;;;5.03;1.13;;;14.40;99.90;;;;;;5014653;28;20116;-80
2024/04/07 06:09:52;;;;;;;5.97;1.13;;;14.40;99.90;;;;;;5014478;28;20045;-80
2024/04/07 06:12:17;;;;;;;7.05;1.42;;;14.40;99.90;;;;;;5016151;28;20541;-79
2024/04/07 06:14:43;;;;;;;7.68;1.52;;;14.40;99.90;;;;;;5024343;28;20049;-82
2024/04/07 06:17:09;;;;;;;6.40;1.25;;;14.40;99.90;;;;;;5027313;28;20052;-80
2024/04/07 06:19:35;;;;;;;3.33;1.17;;;14.50;99.90;;;;;;5015180;28;20029;-80
2024/04/07 06:22:00;;;;;;;5.97;1.30;;;14.60;99.90;;;;;;5020728;28;20038;-80
2024/04/07 06:24:26;;;;;;;2.50;1.15;;;14.60;99.90;;;;;;5022442;28;20399;-80
2024/04/07 06:26:53;;;;;;;3.10;1.17;;;14.70;99.90;;;;;;5017701;28;20033;-79
2024/04/07 06:29:18;;;;;;;3.70;1.10;;;14.80;99.90;;;;;;5016125;28;20390;-81
2024/04/07 06:31:44;;;;;;;3.83;1.23;;;14.80;99.90;;;;;;5027234;28;20026;-80
2024/04/07 06:34:09;;;;;;;8.13;1.38;;;14.80;99.90;;;;;;5027939;28;20029;-81
2024/04/07 06:36:35;;;;;;;6.90;1.13;;;14.80;99.90;;;;;;5028881;28;20029;-81
2024/04/07 06:39:01;;;;;;;5.07;1.80;;;14.80;99.90;;;;;;5012960;28;20034;-82
2024/04/07 06:41:26;;;;;;;3.63;1.20;;;15.00;99.90;;;;;;5009422;28;20076;-81
2024/04/07 06:43:52;;;;;;;1.95;0.90;;;15.00;99.90;;;;;;5009628;28;20037;-82
2024/04/07 06:46:18;;;;;;;10.90;1.35;;;15.00;99.90;;;;;;5009126;28;20025;-84
2024/04/07 06:48:43;;;;;;;4.65;1.40;;;15.20;99.90;;;;;;5008922;28;20022;-81
2024/04/07 06:51:09;;;;;;;7.38;1.35;;;15.20;99.90;;;;;;5010205;28;20092;-83
2024/04/07 06:53:36;;;;;;;7.38;1.40;;;15.20;99.90;;;;;;5012557;28;20938;-85
2024/04/07 06:56:01;;;;;;;3.30;1.38;;;15.20;99.90;;;;;;5016906;28;20046;-83
2024/04/07 06:58:30;;;;;;;7.63;1.20;;;15.10;99.90;;;;;;5009474;28;20029;-83
2024/04/07 07:00:56;;;;;;;5.55;0.90;;;15.20;1.00;;;;;;5019088;28;20422;-85
2024/04/07 07:03:22;;;;;;;4.45;1.38;;;15.20;99.90;;;;;;5030120;28;20021;-85
2024/04/07 07:05:48;;;;;;;6.47;1.48;;;15.10;1.00;;;;;;5030320;28;20017;-83
2024/04/07 07:08:15;;;;;;;10.68;1.52;;;15.20;1.00;;;;;;5017504;28;20523;-82
2024/04/07 07:10:40;;;;;;;10.70;2.17;;;15.30;99.90;;;;;;5016693;28;20068;-85
2024/04/07 07:13:06;;;;;;;4.95;1.35;;;15.40;99.90;;;;;;5020441;28;20553;-85
2024/04/07 07:15:31;;;;;;;5.97;1.45;;;15.50;99.90;;;;;;5026758;28;20495;-84
2024/04/07 07:17:57;;;;;;;4.10;1.15;;;15.30;99.90;;;;;;5031064;28;20571;-82
2024/04/07 07:20:23;;;;;;;4.85;1.20;;;15.40;99.90;;;;;;5027107;28;20105;-84
2024/04/07 07:22:49;;;;;;;7.43;1.23;;;15.50;99.90;;;;;;5016319;28;20109;-84
2024/04/07 07:25:14;;;;;;;10.40;2.00;;;15.70;99.90;;;;;;5019474;28;20454;-83
2024/04/07 07:27:41;;;;;;;9.02;1.40;;;15.80;99.90;;;;;;5014717;28;20034;-84
2024/04/07 07:30:06;;;;;;;3.35;1.08;;;15.90;99.90;;;;;;5025602;28;20121;-83
2024/04/07 07:32:33;;;;;;;3.80;1.15;;;16.00;99.90;;;;;;5031237;28;20025;-85
2024/04/07 07:34:59;;;;;;;2.55;1.02;;;16.10;99.90;;;;;;5031454;28;20034;-84
2024/04/07 07:37:24;;;;;;;4.03;1.20;;;16.20;99.90;;;;;;5019137;28;20499;-85
2024/04/07 07:39:50;;;;;;;9.25;1.98;;;16.20;99.90;;;;;;5013905;28;20033;-87
2024/04/07 07:42:16;;;;;;;7.47;1.45;;;16.30;99.90;;;;;;5013353;28;20073;-86
2024/04/07 07:44:41;;;;;;;8.20;1.30;;;16.40;99.90;;;;;;5017605;28;20430;-86
2024/04/07 07:47:07;;;;;;;4.53;2.40;;;16.40;99.90;;;;;;5012292;28;20097;-84
2024/04/07 07:49:32;;;;;;;3.95;0.95;;;16.50;99.90;;;;;;5012816;28;20419;-87
2024/04/07 07:51:58;;;;;;;7.22;1.40;;;16.70;99.90;;;;;;5019362;28;20421;-83
2024/04/07 07:54:24;;;;;;;9.52;2.03;;;16.70;99.90;;;;;;5025268;28;20099;-84
2024/04/07 07:56:50;;;;;;;7.05;1.50;;;16.80;99.90;;;;;;5014010;28;20045;-85
2024/04/07 07:59:15;;;;;;;4.15;1.45;;;17.00;99.90;;;;;;5016193;28;20024;-85
2024/04/07 08:01:41;;;;;;;9.82;1.48;;;17.20;99.90;;;;;;5013428;28;20034;-85
2024/04/07 08:04:06;;;;;;;5.53;1.65;;;17.30;99.90;;;;;;5018289;28;20021;-85
2024/04/07 08:06:32;;;;;;;4.85;1.27;;;17.30;99.90;;;;;;5028407;28;20030;-82
2024/04/07 08:08:58;;;;;;;8.75;1.23;;;17.60;99.90;;;;;;5028940;28;20064;-80
2024/04/07 08:11:24;;;;;;;7.75;1.60;;;17.50;99.90;;;;;;5018390;28;20107;-83
2024/04/07 08:13:50;;;;;;;10.02;1.05;;;17.40;99.90;;;;;;5024824;28;20471;-82
2024/04/07 08:16:16;;;;;;;7.60;1.02;;;17.60;99.90;;;;;;5019691;28;20034;-84
2024/04/07 08:18:42;;;;;;;7.30;1.08;;;17.70;99.90;;;;;;5010383;28;20087;-83
2024/04/07 08:21:07;;;;;;;8.20;0.80;;;17.60;99.90;;;;;;5011878;28;20048;-84
2024/04/07 08:23:33;;;;;;;4.32;1.27;;;17.70;99.90;;;;;;5016801;28;20021;-82
2024/04/07 08:25:59;;;;;;;5.57;1.50;;;17.70;99.90;;;;;;5022120;28;20083;-82
2024/04/07 08:28:25;;;;;;;1.75;0.88;;;17.70;99.90;;;;;;5030502;28;20565;-81
2024/04/07 08:30:51;;;;;;;3.47;0.75;;;17.90;99.90;;;;;;5021306;28;20112;-80
2024/04/07 08:33:17;;;;;;;6.28;1.08;;;18.10;99.90;;;;;;5023369;28;20028;-79
2024/04/07 08:35:45;;;;;;;4.22;0.82;;;18.10;99.90;;;;;;5029724;28;20034;-81
2024/04/07 08:38:11;;;;;;;2.28;0.80;;;17.90;99.90;;;;;;5027962;28;20075;-80
2024/04/07 08:40:40;;;;;;;7.60;0.98;;;18.20;99.90;;;;;;5021637;28;20057;-79
2024/04/07 08:43:07;;;;;;;9.70;0.80;;;18.30;99.90;;;;;;5019042;28;20034;-81
2024/04/07 08:45:33;;;;;;;6.30;1.02;;;18.60;99.90;;;;;;5020376;28;20166;-79
2024/04/07 08:48:00;;;;;;;6.63;0.85;;;18.90;99.90;;;;;;5020653;28;20034;-76
2024/04/07 08:50:27;;;;;;;3.42;0.70;;;19.10;99.90;;;;;;5021080;28;20148;-76
2024/04/07 08:52:55;;;;;;;1.98;0.60;;;19.20;99.90;;;;;;5016743;28;20038;-75
2024/04/07 08:55:23;;;;;;;7.57;1.08;;;19.20;99.90;;;;;;5019650;28;20049;-76
2024/04/07 08:57:50;;;;;;;4.07;0.95;;;19.20;99.90;;;;;;5014290;28;20034;-76
2024/04/07 09:00:16;;;;;;;5.95;0.65;;;19.30;99.90;;;;;;5024131;28;20025;-75
2024/04/07 09:02:42;;;;;;;3.22;0.70;;;19.40;99.90;;;;;;5024352;28;20686;-76
2024/04/07 09:05:08;;;;;;;1.65;0.50;;;19.20;99.90;;;;;;5028041;28;20034;-80
2024/04/07 09:07:34;;;;;;;7.82;0.93;;;19.10;72.60;;;;;;5025997;28;20041;-79
2024/04/07 09:10:00;;;;;;;2.42;0.60;;;19.20;99.90;;;;;;5026290;28;20053;-81
2024/04/07 09:12:26;;;;;;;3.47;0.70;;;19.30;72.50;;;;;;5030131;28;20087;-79
2024/04/07 09:14:52;;;;;;;3.80;0.70;;;19.30;26.10;;;;;;5029883;28;20033;-79
2024/04/07 09:17:18;;;;;;;2.40;0.70;;;19.30;99.90;;;;;;5029601;28;20068;-77
2024/04/07 09:19:44;;;;;;;2.85;0.80;;;19.60;1.00;;;;;;5030448;28;20444;-78
2024/04/07 09:22:09;;;;;;;5.60;0.90;;;19.90;1.00;;;;;;5029060;28;20110;-78
2024/04/07 09:24:38;;;;;;;6.30;0.65;;;20.10;99.90;;;;;;5029362;28;20026;-79
2024/04/07 09:27:06;;;;;;;1.90;0.47;;;20.20;29.10;;;;;;5027969;28;20022;-78
2024/04/07 09:29:34;;;;;;;2.83;0.52;;;20.10;1.00;;;;;;5029385;28;20542;-79
2024/04/07 09:32:00;;;;;;;2.00;1.17;;;20.10;1.00;;;;;;5028817;28;20025;-78
2024/04/07 09:34:26;;;;;;;0.40;0.40;;;20.10;1.00;;;;;;5028757;28;20025;-77
2024/04/07 09:36:55;;;;;;;3.38;0.82;;;20.20;99.90;;;;;;5029540;28;20044;-78
2024/04/07 09:39:23;;;;;;;4.63;0.52;;;19.60;2.50;;;;;;5029595;28;20022;-81
2024/04/07 09:41:53;;;;;;;6.45;0.60;;;19.40;1.00;;;;;;5028067;28;20105;-78
2024/04/07 09:44:19;;;;;;;6.18;0.52;;;19.90;4.60;;;;;;5028579;28;20038;-77
2024/04/07 09:46:45;;;;;;;2.20;0.35;;;20.20;1.00;;;;;;5028235;28;20476;-76
2024/04/07 09:49:12;;;;;;;1.60;0.43;;;20.40;1.00;;;;;;5028063;28;20041;-77
2024/04/07 09:51:52;;;;;;;5.28;0.50;;;20.30;99.90;;;;;;5016598;28;20041;-76
2024/04/07 09:54:49;;;;;;;2.53;0.68;;;20.20;99.90;;;;;;5017098;28;20045;-75
2024/04/07 09:57:18;;;;;;;2.05;0.40;;;20.40;99.90;;;;;;5018938;28;20036;-77
2024/04/07 09:59:46;;;;;;;1.63;0.50;;;20.60;99.90;;;;;;5016871;28;20537;-77
2024/04/07 10:02:12;;;;;;;1.52;0.45;;;20.70;99.90;;;;;;5012610;28;20025;-77
2024/04/07 10:04:39;;;;;;;4.00;0.82;;;20.90;99.90;;;;;;5018008;28;20129;-74
2024/04/07 10:07:06;;;;;;;1.63;0.60;;;20.90;99.90;;;;;;5022017;28;20396;-76
2024/04/07 10:09:32;;;;;;;2.47;0.50;;;21.00;99.90;;;;;;5009967;28;20028;-76
2024/04/07 10:11:58;;;;;;;3.72;0.60;;;20.90;1.00;;;;;;5013182;28;20033;-74
2024/04/07 10:14:24;;;;;;;1.95;0.57;;;21.10;99.90;;;;;;5012684;28;20033;-76
2024/04/07 10:16:51;;;;;;;3.50;0.45;;;21.20;99.90;;;;;;5015294;28;20041;-76
2024/04/07 10:19:26;;;;;;;2.63;0.43;;;21.60;99.90;;;;;;5020335;28;20025;-77
2024/04/07 10:21:52;;;;;;;3.53;0.50;;;22.20;99.90;;;;;;5017567;28;20055;-78
2024/04/07 10:24:18;;;;;;;1.40;0.60;;;22.30;99.90;;;;;;5011921;28;20537;-78
2024/04/07 10:26:58;;;;;;;2.40;0.70;;;22.00;99.90;;;;;;5019133;28;20017;-76
2024/04/07 10:29:28;;;;;;;2.15;0.50;;;21.90;99.90;;;;;;5024596;28;20613;-76
2024/04/07 10:31:54;;;;;;;3.78;0.52;;;22.20;99.90;;;;;;5013712;28;20041;-78
2024/04/07 10:34:19;;;;;;;1.23;0.30;;;22.60;99.90;;;;;;5023827;28;20037;-77
2024/04/07 10:36:53;;;;;;;4.38;0.52;;;23.00;99.90;;;;;;5013848;28;20054;-76
2024/04/07 10:39:23;;;;;;;2.42;0.52;;;22.70;99.90;;;;;;5016458;28;20628;-77
2024/04/07 10:41:49;;;;;;;2.47;0.40;;;22.80;99.90;;;;;;5014283;28;20026;-76
2024/04/07 10:44:15;;;;;;;3.47;0.95;;;22.60;99.90;;;;;;5018239;28;20041;-76
2024/04/07 10:46:41;;;;;;;1.58;0.50;;;22.70;99.90;;;;;;5013170;28;20022;-77
2024/04/07 10:49:07;;;;;;;4.18;0.60;;;22.50;99.90;;;;;;5019731;28;20041;-76
2024/04/07 10:51:33;;;;;;;6.93;1.25;;;22.80;99.90;;;;;;5017201;28;20685;-75
2024/04/07 10:54:04;;;;;;;4.57;0.70;;;22.60;99.90;;;;;;5017430;28;20034;-74
2024/04/07 10:56:30;;;;;;;6.55;0.90;;;22.70;91.30;;;;;;5019967;28;20514;-76
2024/04/07 10:58:57;;;;;;;3.28;0.60;;;23.10;99.90;;;;;;5020132;28;20026;-75
2024/04/07 11:01:24;;;;;;;5.88;0.90;;;23.10;95.80;;;;;;5018393;28;20134;-75
2024/04/07 11:03:57;;;;;;;3.13;0.60;;;23.50;99.90;;;;;;5022399;28;20026;-75
2024/04/07 11:06:26;;;;;;;3.97;1.25;;;23.30;95.60;;;;;;5021315;28;20026;-75
2024/04/07 11:08:53;;;;;;;5.70;0.98;;;22.30;99.90;;;;;;5026639;28;20094;-75
2024/04/07 11:11:22;;;;;;;4.13;0.95;;;22.60;99.90;;;;;;5029257;28;20040;-73
2024/04/07 11:13:51;;;;;;;5.32;1.08;;;22.60;99.90;;;;;;5024604;28;20472;-75
2024/04/07 11:16:18;;;;;;;4.43;0.50;;;22.90;99.90;;;;;;5011481;28;20065;-75
2024/04/07 11:18:43;;;;;;;4.15;0.50;;;23.70;82.40;;;;;;5018075;28;20025;-76
2024/04/07 11:21:10;;;;;;;4.85;0.90;;;23.10;99.90;;;;;;5029490;28;20441;-75
2024/04/07 11:23:38;;;;;;;1.23;0.40;;;23.00;99.90;;;;;;5014994;28;20026;-75
2024/04/07 11:26:03;;;;;;;6.72;0.73;;;23.30;99.90;;;;;;5011135;28;20075;-75
2024/04/07 11:28:29;;;;;;;6.07;0.80;;;23.50;99.90;;;;;;5010360;28;20507;-74
2024/04/07 11:30:58;;;;;;;3.38;0.65;;;23.60;76.80;;;;;;5024227;28;20022;-74
2024/04/07 11:33:25;;;;;;;3.72;0.95;;;24.30;31.50;;;;;;5009506;28;20123;-74
2024/04/07 11:35:53;;;;;;;2.33;0.70;;;24.20;99.90;;;;;;5011400;28;20029;-74
2024/04/07 11:38:19;;;;;;;7.03;1.27;;;23.70;99.90;;;;;;5010742;28;20037;-74
2024/04/07 11:40:44;;;;;;;6.18;0.77;;;23.50;99.90;;;;;;5026134;28;20040;-74
2024/04/07 11:43:10;;;;;;;2.17;0.50;;;23.70;99.90;;;;;;5010990;28;20033;-74
2024/04/07 11:45:37;;;;;;;3.78;0.57;;;23.70;99.90;;;;;;5010893;28;20022;-74
2024/04/07 11:48:03;;;;;;;1.38;0.40;;;23.20;99.90;;;;;;5020520;28;20143;-73
2024/04/07 11:50:30;;;;;;;5.68;0.75;;;23.50;99.90;;;;;;5010254;28;20036;-74
2024/04/07 11:52:56;;;;;;;2.17;0.80;;;23.80;99.90;;;;;;5010131;28;20029;-74
2024/04/07 11:55:22;;;;;;;6.32;0.77;;;23.70;99.90;;;;;;5010106;28;20042;-74
2024/04/07 11:57:48;;;;;;;3.55;0.70;;;23.30;99.90;;;;;;5010232;28;20024;-74
2024/04/07 12:00:13;;;;;;;2.75;1.25;;;23.70;75.20;;;;;;5010256;28;20499;-74
2024/04/07 12:02:39;;;;;;;4.05;0.50;;;25.10;44.90;;;;;;5015052;28;20040;-73
2024/04/07 12:05:07;;;;;;;3.33;0.63;;;24.60;99.90;;;;;;5020976;28;20029;-73
2024/04/07 12:07:33;;;;;;;2.75;0.57;;;24.10;99.90;;;;;;5022532;28;20060;-73
2024/04/07 12:09:59;;;;;;;4.03;0.63;;;24.10;99.90;;;;;;5022115;28;20450;-72
2024/04/07 12:12:26;;;;;;;1.88;0.70;;;23.90;96.80;;;;;;5020218;28;20418;-74
2024/04/07 12:14:52;;;;;;;3.15;0.73;;;24.20;99.90;;;;;;5024235;28;20021;-73
2024/04/07 12:17:18;;;;;;;4.90;0.43;;;24.70;95.40;;;;;;5017667;28;20092;-73
2024/04/07 12:19:43;;;;;;;5.22;0.75;;;24.20;99.90;;;;;;5024152;28;20017;-75
2024/04/07 12:22:17;;;;;;;2.53;0.63;;;24.70;11.00;;;;;;5019973;28;20510;-73
2024/04/07 12:24:43;;;;;;;4.20;0.68;;;25.20;13.80;;;;;;5018189;28;20044;-76
2024/04/07 12:27:10;;;;;;;2.85;0.60;;;26.00;8.40;;;;;;5016005;28;20053;-76
2024/04/07 12:29:36;;;;;;;4.05;0.50;;;25.80;88.30;;;;;;5014822;28;20454;-75
2024/04/07 12:32:01;;;;;;;5.68;0.60;;;26.50;1.00;;;;;;5016864;28;20052;-77
2024/04/07 12:34:27;;;;;;;1.95;0.52;;;26.10;1.00;;;;;;5009966;28;20030;-76
2024/04/07 12:36:52;;;;;;;3.00;0.57;;;26.40;38.20;;;;;;5016759;28;20037;-77
2024/04/07 12:39:18;;;;;;;3.03;0.60;;;26.40;24.10;;;;;;5025556;28;20045;-76
2024/04/07 12:41:49;;;;;;;5.18;0.80;;;26.70;1.00;;;;;;5025581;28;20051;-79
2024/04/07 12:44:16;;;;;;;3.45;0.57;;;26.50;1.00;;;;;;5025931;28;20044;-78
2024/04/07 12:46:43;;;;;;;4.50;0.85;;;26.10;1.00;;;;;;5025819;28;20059;-77
2024/04/07 12:49:10;;;;;;;4.78;0.52;;;24.10;23.90;;;;;;5026517;28;20026;-76